TAF Text Data
IDs:
Format:
Raw Decoded Include METAR

Data at: 1412 UTC 22 Apr 2021

Region: TOP
KATL 221353Z 2214/2318 35005KT P6SM SKC
  FM221700 31008G16KT P6SM SKC
  FM222300 32005KT P6SM SKC
  FM230600 02004KT P6SM SCT120
  FM231400 12007KT P6SM SCT080 BKN120


KBOS 221120Z 2212/2318 29017G29KT P6SM SCT050
  FM221500 28024G35KT P6SM BKN050
  FM230300 26017G28KT P6SM FEW250


KBWI 221120Z 2212/2318 24004KT P6SM SCT060
  FM221300 29014G24KT P6SM SCT070
  FM221500 29018G29KT P6SM BKN080
  FM222200 29016G24KT P6SM SCT100
  FM230500 26006KT P6SM SKC
  FM231500 28011G19KT P6SM SKC


KCLE 221126Z 2212/2318 30010KT P6SM FEW090
  FM221700 27015G25KT P6SM BKN050
  FM230100 25007KT P6SM FEW250
  FM231500 26012G22KT P6SM SCT100


KCLT 221406Z 2214/2318 31006KT P6SM SCT250
  FM221700 28010G18KT P6SM FEW070 SCT250
  FM222300 30007KT P6SM FEW250
  FM230300 36003KT P6SM SKC
  FM231400 14006KT P6SM SCT250


KCVG 221133Z 2212/2318 21004KT P6SM SCT028 BKN045 OVC060
  FM221300 26008KT P6SM OVC060
  FM221800 29011KT P6SM BKN080
  FM230100 26003KT P6SM SKC
  FM230300 23003KT P6SM SKC
  FM231200 19003KT P6SM BKN150


KDCA 221120Z 2212/2318 21004KT P6SM SCT060
  FM221300 29014G25KT P6SM SCT070
  FM221500 29017G29KT P6SM BKN070
  FM222200 29014G24KT P6SM SCT080
  FM230400 28006KT P6SM FEW250
  FM231500 28010G17KT P6SM FEW250


KDEN 221304Z 2213/2318 28007KT 4SM BR SCT015 SCT100 BKN220
  FM221500 32007KT 5SM BR SCT018 BKN100 BKN220
  FM221600 35007KT P6SM BKN012 BKN100
  FM221700 04008KT P6SM SCT040 BKN100
  FM230200 15008KT P6SM SCT060 SCT100


KDFW 221120Z 2212/2318 11004KT P6SM OVC070
  FM221500 14011KT P6SM OVC050
  FM230500 15010KT P6SM OVC025
  FM230800 16011KT P6SM OVC009
  FM231100 15013KT 3SM BR OVC005
  TEMPO 2311/2315 2SM -RA BR BKN004
  FM231700 17016KT 5SM BR OVC010


KDTW 221120Z 2212/2318 30006KT P6SM SCT060
  FM221400 29012G20KT P6SM BKN060
  FM221800 29012G20KT P6SM BKN070
  FM222200 27009KT P6SM FEW070
  FM230200 23006KT P6SM SKC
  FM231400 24012KT P6SM SCT150


KEWR 221133Z 2212/2318 29015G26KT P6SM SCT050
  FM221500 29020G34KT P6SM SCT070
  FM230000 29017G25KT P6SM SCT070
  FM230200 28012G18KT P6SM FEW070
  FM230800 26010KT P6SM SKC
  FM231500 27015G23KT P6SM SKC


KFLL 221137Z 2212/2318 35007KT P6SM BKN050
  FM221400 02010KT P6SM BKN050
  FM221900 06012KT P6SM VCSH BKN050
  FM230300 06010KT P6SM SCT030
  FM231500 09015KT P6SM BKN050


KIAD 221120Z 2212/2318 21004KT P6SM BKN060
  FM221300 29014G25KT P6SM SCT080
  FM221500 29016G28KT P6SM BKN080
  FM230000 29010G17KT P6SM SCT100
  FM230400 26006KT P6SM SKC
  FM231500 28010G17KT P6SM FEW250


KIAH 221127Z 2212/2318 10008KT P6SM SCT110 SCT250
  FM221800 11014KT P6SM BKN040
  FM230000 12017KT P6SM SCT025 OVC045
  FM230300 14016KT P6SM OVC025
  FM230500 13012KT P6SM OVC018
  FM231400 14012KT P6SM VCSH OVC009


KJFK 221133Z 2212/2318 29018G28KT P6SM FEW050
  FM221400 29022G35KT P6SM SCT060
  FM222300 29018G28KT P6SM SCT060
  FM230200 28014G23KT P6SM FEW060


KLAS 221127Z 2212/2318 17006KT P6SM FEW200
  FM221500 VRB06KT P6SM FEW100
  FM221800 35008KT P6SM FEW100
  FM222200 23009KT P6SM FEW100 SCT120
  FM230600 21012KT P6SM SKC


KLAX 221306Z 2213/2318 26005KT P6SM BKN015 OVC030
  FM221700 25010KT P6SM BKN025 OVC035
  FM222100 26014KT P6SM SCT025 BKN035
  FM230300 27010KT P6SM OVC025
  FM231000 VRB03KT P6SM OVC025


KLGA 221133Z 2212/2318 29016G26KT P6SM SCT060
  FM221500 29018G33KT P6SM SCT060
  FM222300 29018G27KT P6SM SCT060
  FM230200 28015G20KT P6SM FEW070
  FM230800 28012KT P6SM SKC
  FM231300 28014G22KT P6SM SKC


KMCO 221121Z 2212/2318 36010KT P6SM SKC
  FM221400 03012KT P6SM SKC
  FM230300 05006KT P6SM SCT250
  FM231500 09011KT P6SM SCT040


KMDW 221120Z 2212/2318 28007KT P6SM SCT060
  FM221500 28013G24KT P6SM SCT060
  FM230100 24011KT P6SM FEW060 SCT200
  FM231400 21012G21KT P6SM SCT050 BKN100


KMEM 221120Z 2212/2318 VRB03KT P6SM FEW250
  FM221500 36006KT P6SM BKN200
  FM222200 10005KT P6SM SCT250
  FM230100 15003KT P6SM FEW150
  FM231300 17005KT P6SM BKN070


KMIA 221137Z 2212/2318 35008KT P6SM BKN050
  FM221400 01008KT P6SM BKN050
  FM221900 05012KT P6SM VCSH BKN050
  FM230300 06008KT P6SM SCT030
  FM231500 09015KT P6SM BKN050


KMSP 221359Z 2214/2318 25007G12KT P6SM SKC
  FM221600 24008G18KT P6SM SKC
  FM230300 21008KT P6SM BKN180
  FM230900 20006KT P6SM -SHRA SCT035 OVC060
  FM231100 18006KT P6SM -SHRA BKN025
  FM231300 16007KT P6SM BKN015


KORD 221120Z 2212/2318 28007KT P6SM SCT060
  FM221500 28013G24KT P6SM SCT060
  FM230100 24011KT P6SM FEW060 SCT200
  FM231400 21012G21KT P6SM SCT050 BKN100


KPDX 221303Z 2213/2312 00000KT P6SM OVC023
  FM221700 29008KT P6SM SCT030
  FM231000 31005KT P6SM SCT022 OVC150


KPHL 221307Z 2213/2318 29014G24KT P6SM FEW050
  FM221500 29018G30KT P6SM BKN060
  FM230100 28010KT P6SM FEW100


KPHX 221313Z 2213/2318 11007KT P6SM FEW120 BKN180
  TEMPO 2214/2218 18007KT
  FM221800 27006KT P6SM FEW120 SCT220
  FM222100 25009G17KT P6SM FEW070 FEW120 FEW250
  FM230200 26007KT P6SM FEW080 SCT120
  FM230800 10005KT P6SM FEW070 SCT120


KPIT 221300Z 2213/2318 28011G21KT P6SM SCT025
  FM221600 29012G22KT P6SM SCT070
  FM230300 28007KT P6SM SKC


KSAN 221120Z 2212/2318 22007KT P6SM VCSH BKN025 OVC035
  FM221800 27010KT P6SM SCT025 OVC035
  FM230200 VRB05KT P6SM BKN025 OVC035


KSEA 221120Z 2212/2318 21007KT P6SM OVC010
  FM221800 23006KT P6SM OVC017
  FM222100 23005KT P6SM BKN035
  FM230100 22005KT P6SM SCT050 SCT200
  FM230900 19008KT P6SM OVC030


KSFO 221240Z 2213/2318 VRB03KT P6SM FEW008 BKN015
  FM221500 VRB06KT P6SM FEW009 BKN018
  FM221800 26008KT P6SM FEW011 SCT018
  FM222300 26013G20KT P6SM FEW012 SCT250
  FM230300 27013KT P6SM FEW009 BKN014
  FM230600 25009KT P6SM OVC011


KSLC 221120Z 2212/2318 15006KT P6SM FEW150
  FM221700 32008KT P6SM FEW080 SCT140
  FM230300 14006KT P6SM SCT090 BKN120
  FM231500 34007KT P6SM VCSH BKN060 OVC100


KSTL 221120Z 2212/2318 26005KT P6SM SKC
  FM222100 20005KT P6SM FEW250
  FM230500 16005KT P6SM VCSH OVC090
  FM230700 16006KT 6SM -SHRA BR OVC028
  FM231300 15012KT P6SM VCSH OVC023


KTPA 221127Z 2212/2318 02009KT P6SM SKC
  FM221800 36007KT P6SM SKC
  FM230300 03007KT P6SM FEW050 FEW250
  FM231200 08008KT P6SM FEW250